sensor_id;sensor_type;location;lat;lon;timestamp;P1;durP1;ratioP1;P2;durP2;ratioP2
62580;SDS011;48640;48.770;9.148;2023-01-25T00:02:07;36.08;;;18.70;;
62580;SDS011;48640;48.770;9.148;2023-01-25T00:04:34;29.90;;;17.77;;
62580;SDS011;48640;48.770;9.148;2023-01-25T00:07:02;32.63;;;17.65;;
62580;SDS011;48640;48.770;9.148;2023-01-25T00:09:29;37.25;;;19.83;;
62580;SDS011;48640;48.770;9.148;2023-01-25T00:11:56;33.75;;;20.40;;
62580;SDS011;48640;48.770;9.148;2023-01-25T00:14:23;31.63;;;18.23;;
62580;SDS011;48640;48.770;9.148;2023-01-25T00:16:50;32.10;;;18.52;;
62580;SDS011;48640;48.770;9.148;2023-01-25T00:19:17;28.10;;;17.17;;
62580;SDS011;48640;48.770;9.148;2023-01-25T00:21:44;29.05;;;16.88;;
62580;SDS011;48640;48.770;9.148;2023-01-25T00:24:12;26.45;;;16.63;;
62580;SDS011;48640;48.770;9.148;2023-01-25T00:26:39;28.33;;;15.90;;
62580;SDS011;48640;48.770;9.148;2023-01-25T00:29:08;28.08;;;16.38;;
62580;SDS011;48640;48.770;9.148;2023-01-25T00:31:39;29.45;;;16.25;;
62580;SDS011;48640;48.770;9.148;2023-01-25T00:34:32;29.08;;;15.95;;
62580;SDS011;48640;48.770;9.148;2023-01-25T00:37:11;26.08;;;15.75;;
62580;SDS011;48640;48.770;9.148;2023-01-25T00:39:49;24.00;;;14.80;;
62580;SDS011;48640;48.770;9.148;2023-01-25T00:42:17;28.58;;;15.98;;
62580;SDS011;48640;48.770;9.148;2023-01-25T00:44:45;31.13;;;16.42;;
62580;SDS011;48640;48.770;9.148;2023-01-25T00:47:12;25.80;;;15.95;;
62580;SDS011;48640;48.770;9.148;2023-01-25T00:49:40;26.45;;;15.65;;
62580;SDS011;48640;48.770;9.148;2023-01-25T00:52:07;23.10;;;14.80;;
62580;SDS011;48640;48.770;9.148;2023-01-25T00:54:35;27.73;;;16.42;;
62580;SDS011;48640;48.770;9.148;2023-01-25T00:57:04;24.25;;;14.05;;
62580;SDS011;48640;48.770;9.148;2023-01-25T00:59:31;24.52;;;14.93;;
62580;SDS011;48640;48.770;9.148;2023-01-25T01:01:58;26.77;;;15.90;;
62580;SDS011;48640;48.770;9.148;2023-01-25T01:04:25;28.42;;;16.77;;
62580;SDS011;48640;48.770;9.148;2023-01-25T01:06:52;25.35;;;15.65;;
62580;SDS011;48640;48.770;9.148;2023-01-25T01:09:19;25.38;;;16.17;;
62580;SDS011;48640;48.770;9.148;2023-01-25T01:11:47;27.25;;;15.82;;
62580;SDS011;48640;48.770;9.148;2023-01-25T01:14:16;28.88;;;16.35;;
62580;SDS011;48640;48.770;9.148;2023-01-25T01:16:43;28.05;;;16.20;;
62580;SDS011;48640;48.770;9.148;2023-01-25T01:19:09;36.55;;;17.27;;
62580;SDS011;48640;48.770;9.148;2023-01-25T01:21:36;28.10;;;15.23;;
62580;SDS011;48640;48.770;9.148;2023-01-25T01:24:03;31.05;;;16.25;;
62580;SDS011;48640;48.770;9.148;2023-01-25T01:26:31;30.58;;;17.58;;
62580;SDS011;48640;48.770;9.148;2023-01-25T01:28:58;24.38;;;15.15;;
62580;SDS011;48640;48.770;9.148;2023-01-25T01:31:26;28.38;;;16.50;;
62580;SDS011;48640;48.770;9.148;2023-01-25T01:33:54;27.80;;;16.45;;
62580;SDS011;48640;48.770;9.148;2023-01-25T01:36:23;29.73;;;17.27;;
62580;SDS011;48640;48.770;9.148;2023-01-25T01:38:51;27.35;;;15.48;;
62580;SDS011;48640;48.770;9.148;2023-01-25T01:41:18;29.83;;;16.42;;
62580;SDS011;48640;48.770;9.148;2023-01-25T01:43:45;31.15;;;16.80;;
62580;SDS011;48640;48.770;9.148;2023-01-25T01:46:14;29.52;;;16.60;;
62580;SDS011;48640;48.770;9.148;2023-01-25T01:48:47;29.08;;;16.95;;
62580;SDS011;48640;48.770;9.148;2023-01-25T01:51:18;28.33;;;15.52;;
62580;SDS011;48640;48.770;9.148;2023-01-25T01:53:49;32.47;;;15.27;;
62580;SDS011;48640;48.770;9.148;2023-01-25T01:56:21;26.75;;;15.82;;
62580;SDS011;48640;48.770;9.148;2023-01-25T01:58:53;30.10;;;17.23;;
62580;SDS011;48640;48.770;9.148;2023-01-25T02:01:23;24.90;;;15.15;;
62580;SDS011;48640;48.770;9.148;2023-01-25T02:03:51;26.02;;;15.63;;
62580;SDS011;48640;48.770;9.148;2023-01-25T02:06:23;30.27;;;16.10;;
62580;SDS011;48640;48.770;9.148;2023-01-25T02:08:53;29.98;;;16.55;;
62580;SDS011;48640;48.770;9.148;2023-01-25T02:11:21;25.92;;;15.13;;
62580;SDS011;48640;48.770;9.148;2023-01-25T02:13:49;26.13;;;14.75;;
62580;SDS011;48640;48.770;9.148;2023-01-25T02:16:18;25.60;;;14.88;;
62580;SDS011;48640;48.770;9.148;2023-01-25T02:18:48;30.58;;;16.80;;
62580;SDS011;48640;48.770;9.148;2023-01-25T02:21:17;26.80;;;16.27;;
62580;SDS011;48640;48.770;9.148;2023-01-25T02:23:46;28.30;;;16.50;;
62580;SDS011;48640;48.770;9.148;2023-01-25T02:26:18;29.58;;;16.60;;
62580;SDS011;48640;48.770;9.148;2023-01-25T02:28:47;28.23;;;16.70;;
62580;SDS011;48640;48.770;9.148;2023-01-25T02:31:17;28.90;;;15.88;;
62580;SDS011;48640;48.770;9.148;2023-01-25T02:33:44;27.80;;;16.30;;
62580;SDS011;48640;48.770;9.148;2023-01-25T02:36:15;27.13;;;16.33;;
62580;SDS011;48640;48.770;9.148;2023-01-25T02:38:47;26.73;;;15.73;;
62580;SDS011;48640;48.770;9.148;2023-01-25T02:41:20;28.85;;;16.80;;
62580;SDS011;48640;48.770;9.148;2023-01-25T02:43:50;27.52;;;15.80;;
62580;SDS011;48640;48.770;9.148;2023-01-25T02:46:17;29.67;;;16.88;;
62580;SDS011;48640;48.770;9.148;2023-01-25T02:48:47;32.80;;;16.67;;
62580;SDS011;48640;48.770;9.148;2023-01-25T02:51:14;28.83;;;16.05;;
62580;SDS011;48640;48.770;9.148;2023-01-25T02:53:41;24.52;;;15.73;;
62580;SDS011;48640;48.770;9.148;2023-01-25T02:56:08;28.67;;;15.80;;
62580;SDS011;48640;48.770;9.148;2023-01-25T02:58:36;28.92;;;15.73;;
62580;SDS011;48640;48.770;9.148;2023-01-25T03:01:03;28.65;;;15.90;;
62580;SDS011;48640;48.770;9.148;2023-01-25T03:03:29;26.05;;;15.18;;
62580;SDS011;48640;48.770;9.148;2023-01-25T03:05:56;26.45;;;15.00;;
62580;SDS011;48640;48.770;9.148;2023-01-25T03:08:23;29.30;;;14.98;;
62580;SDS011;48640;48.770;9.148;2023-01-25T03:10:50;25.40;;;15.85;;
62580;SDS011;48640;48.770;9.148;2023-01-25T03:13:17;23.95;;;15.10;;
62580;SDS011;48640;48.770;9.148;2023-01-25T03:15:45;28.27;;;15.52;;
62580;SDS011;48640;48.770;9.148;2023-01-25T03:18:12;25.77;;;14.68;;
62580;SDS011;48640;48.770;9.148;2023-01-25T03:20:38;24.88;;;14.63;;
62580;SDS011;48640;48.770;9.148;2023-01-25T03:23:05;29.77;;;16.23;;
62580;SDS011;48640;48.770;9.148;2023-01-25T03:25:32;32.42;;;16.23;;
62580;SDS011;48640;48.770;9.148;2023-01-25T03:27:59;28.48;;;16.35;;
62580;SDS011;48640;48.770;9.148;2023-01-25T03:30:25;27.55;;;14.75;;
62580;SDS011;48640;48.770;9.148;2023-01-25T03:32:54;34.17;;;16.08;;
62580;SDS011;48640;48.770;9.148;2023-01-25T03:35:20;24.10;;;14.65;;
62580;SDS011;48640;48.770;9.148;2023-01-25T03:37:47;30.33;;;17.25;;
62580;SDS011;48640;48.770;9.148;2023-01-25T03:40:14;30.52;;;15.60;;
62580;SDS011;48640;48.770;9.148;2023-01-25T03:42:41;28.27;;;15.20;;
62580;SDS011;48640;48.770;9.148;2023-01-25T03:45:08;29.20;;;16.10;;
62580;SDS011;48640;48.770;9.148;2023-01-25T03:47:38;27.23;;;15.65;;
62580;SDS011;48640;48.770;9.148;2023-01-25T03:50:07;29.25;;;15.57;;
62580;SDS011;48640;48.770;9.148;2023-01-25T03:52:34;30.02;;;15.00;;
62580;SDS011;48640;48.770;9.148;2023-01-25T03:55:05;28.83;;;15.32;;
62580;SDS011;48640;48.770;9.148;2023-01-25T03:57:32;28.90;;;15.77;;
62580;SDS011;48640;48.770;9.148;2023-01-25T03:59:59;26.58;;;14.57;;
62580;SDS011;48640;48.770;9.148;2023-01-25T04:02:26;27.20;;;15.07;;
62580;SDS011;48640;48.770;9.148;2023-01-25T04:04:52;33.40;;;15.63;;
62580;SDS011;48640;48.770;9.148;2023-01-25T04:07:20;28.05;;;14.95;;
62580;SDS011;48640;48.770;9.148;2023-01-25T04:09:47;22.73;;;13.13;;
62580;SDS011;48640;48.770;9.148;2023-01-25T04:12:15;23.33;;;14.05;;
62580;SDS011;48640;48.770;9.148;2023-01-25T04:14:42;24.42;;;13.77;;
62580;SDS011;48640;48.770;9.148;2023-01-25T04:17:08;25.70;;;12.73;;
62580;SDS011;48640;48.770;9.148;2023-01-25T04:19:35;21.40;;;11.77;;
62580;SDS011;48640;48.770;9.148;2023-01-25T04:22:02;23.67;;;13.77;;
62580;SDS011;48640;48.770;9.148;2023-01-25T04:24:30;26.80;;;13.75;;
62580;SDS011;48640;48.770;9.148;2023-01-25T04:26:57;27.88;;;13.98;;
62580;SDS011;48640;48.770;9.148;2023-01-25T04:29:24;23.10;;;12.60;;
62580;SDS011;48640;48.770;9.148;2023-01-25T04:31:50;23.55;;;13.63;;
62580;SDS011;48640;48.770;9.148;2023-01-25T04:34:17;24.23;;;13.57;;
62580;SDS011;48640;48.770;9.148;2023-01-25T04:36:45;25.25;;;16.05;;
62580;SDS011;48640;48.770;9.148;2023-01-25T04:39:11;26.80;;;14.40;;
62580;SDS011;48640;48.770;9.148;2023-01-25T04:41:39;25.50;;;14.50;;
62580;SDS011;48640;48.770;9.148;2023-01-25T04:44:06;24.13;;;12.52;;
62580;SDS011;48640;48.770;9.148;2023-01-25T04:46:33;22.77;;;12.23;;
62580;SDS011;48640;48.770;9.148;2023-01-25T04:49:00;21.73;;;12.13;;
62580;SDS011;48640;48.770;9.148;2023-01-25T04:51:27;21.95;;;11.50;;
62580;SDS011;48640;48.770;9.148;2023-01-25T04:53:53;23.70;;;13.60;;
62580;SDS011;48640;48.770;9.148;2023-01-25T04:56:20;19.38;;;11.02;;
62580;SDS011;48640;48.770;9.148;2023-01-25T04:58:48;21.08;;;12.82;;
62580;SDS011;48640;48.770;9.148;2023-01-25T05:01:15;22.63;;;12.85;;
62580;SDS011;48640;48.770;9.148;2023-01-25T05:03:42;23.50;;;12.43;;
62580;SDS011;48640;48.770;9.148;2023-01-25T05:06:09;19.20;;;9.93;;
62580;SDS011;48640;48.770;9.148;2023-01-25T05:08:35;19.38;;;11.90;;
62580;SDS011;48640;48.770;9.148;2023-01-25T05:11:02;19.38;;;10.85;;
62580;SDS011;48640;48.770;9.148;2023-01-25T05:13:29;19.52;;;10.38;;
62580;SDS011;48640;48.770;9.148;2023-01-25T05:15:57;20.25;;;12.05;;
62580;SDS011;48640;48.770;9.148;2023-01-25T05:18:24;20.05;;;11.00;;
62580;SDS011;48640;48.770;9.148;2023-01-25T05:23:41;19.70;;;11.07;;
62580;SDS011;48640;48.770;9.148;2023-01-25T05:26:08;19.83;;;11.10;;
62580;SDS011;48640;48.770;9.148;2023-01-25T05:28:53;17.50;;;9.88;;
62580;SDS011;48640;48.770;9.148;2023-01-25T05:31:21;20.17;;;11.32;;
62580;SDS011;48640;48.770;9.148;2023-01-25T05:33:48;19.55;;;12.05;;
62580;SDS011;48640;48.770;9.148;2023-01-25T05:36:14;18.65;;;10.23;;
62580;SDS011;48640;48.770;9.148;2023-01-25T05:38:41;15.05;;;9.77;;
62580;SDS011;48640;48.770;9.148;2023-01-25T05:41:08;19.25;;;10.90;;
62580;SDS011;48640;48.770;9.148;2023-01-25T05:43:35;18.02;;;9.57;;
62580;SDS011;48640;48.770;9.148;2023-01-25T05:46:01;20.00;;;12.98;;
62580;SDS011;48640;48.770;9.148;2023-01-25T05:48:30;17.98;;;10.55;;
62580;SDS011;48640;48.770;9.148;2023-01-25T05:50:57;17.35;;;10.55;;
62580;SDS011;48640;48.770;9.148;2023-01-25T05:53:24;17.05;;;9.98;;
62580;SDS011;48640;48.770;9.148;2023-01-25T05:55:51;17.67;;;10.73;;
62580;SDS011;48640;48.770;9.148;2023-01-25T05:58:18;19.70;;;11.18;;
62580;SDS011;48640;48.770;9.148;2023-01-25T06:00:45;21.85;;;11.32;;
62580;SDS011;48640;48.770;9.148;2023-01-25T06:03:13;17.42;;;10.25;;
62580;SDS011;48640;48.770;9.148;2023-01-25T06:05:41;18.73;;;11.75;;
62580;SDS011;48640;48.770;9.148;2023-01-25T06:08:08;16.70;;;9.82;;
62580;SDS011;48640;48.770;9.148;2023-01-25T06:10:34;18.77;;;10.55;;
62580;SDS011;48640;48.770;9.148;2023-01-25T06:13:01;16.65;;;9.88;;
62580;SDS011;48640;48.770;9.148;2023-01-25T06:15:28;19.73;;;10.52;;
62580;SDS011;48640;48.770;9.148;2023-01-25T06:17:55;17.98;;;9.95;;
62580;SDS011;48640;48.770;9.148;2023-01-25T06:20:22;19.55;;;10.85;;
62580;SDS011;48640;48.770;9.148;2023-01-25T06:22:50;15.70;;;9.30;;
62580;SDS011;48640;48.770;9.148;2023-01-25T06:25:17;18.73;;;9.75;;
62580;SDS011;48640;48.770;9.148;2023-01-25T06:27:44;18.25;;;10.73;;
62580;SDS011;48640;48.770;9.148;2023-01-25T06:30:11;16.55;;;9.75;;
62580;SDS011;48640;48.770;9.148;2023-01-25T06:32:38;16.52;;;9.63;;
62580;SDS011;48640;48.770;9.148;2023-01-25T06:35:05;17.77;;;11.13;;
62580;SDS011;48640;48.770;9.148;2023-01-25T06:37:32;20.02;;;11.55;;
62580;SDS011;48640;48.770;9.148;2023-01-25T06:40:00;19.15;;;9.55;;
62580;SDS011;48640;48.770;9.148;2023-01-25T06:42:27;21.02;;;11.60;;
62580;SDS011;48640;48.770;9.148;2023-01-25T06:44:54;17.98;;;10.05;;
62580;SDS011;48640;48.770;9.148;2023-01-25T06:47:20;19.27;;;11.43;;
62580;SDS011;48640;48.770;9.148;2023-01-25T06:49:47;20.50;;;11.27;;
62580;SDS011;48640;48.770;9.148;2023-01-25T06:52:14;18.33;;;10.88;;
62580;SDS011;48640;48.770;9.148;2023-01-25T06:54:41;18.48;;;10.52;;
62580;SDS011;48640;48.770;9.148;2023-01-25T06:57:09;18.88;;;10.43;;
62580;SDS011;48640;48.770;9.148;2023-01-25T06:59:36;21.67;;;10.98;;
62580;SDS011;48640;48.770;9.148;2023-01-25T07:02:03;20.38;;;11.05;;
62580;SDS011;48640;48.770;9.148;2023-01-25T07:04:30;19.08;;;11.68;;
62580;SDS011;48640;48.770;9.148;2023-01-25T07:06:56;16.95;;;10.52;;
62580;SDS011;48640;48.770;9.148;2023-01-25T07:09:23;21.40;;;11.13;;
62580;SDS011;48640;48.770;9.148;2023-01-25T07:11:50;18.13;;;10.18;;
62580;SDS011;48640;48.770;9.148;2023-01-25T07:14:18;17.63;;;10.82;;
62580;SDS011;48640;48.770;9.148;2023-01-25T07:16:45;18.13;;;10.82;;
62580;SDS011;48640;48.770;9.148;2023-01-25T07:19:12;20.10;;;11.80;;
62580;SDS011;48640;48.770;9.148;2023-01-25T07:21:38;18.67;;;10.63;;
62580;SDS011;48640;48.770;9.148;2023-01-25T07:24:06;21.13;;;12.20;;
62580;SDS011;48640;48.770;9.148;2023-01-25T07:26:33;19.48;;;10.70;;
62580;SDS011;48640;48.770;9.148;2023-01-25T07:28:59;18.63;;;10.32;;
62580;SDS011;48640;48.770;9.148;2023-01-25T07:31:27;18.13;;;9.93;;
62580;SDS011;48640;48.770;9.148;2023-01-25T07:33:55;18.33;;;10.10;;
62580;SDS011;48640;48.770;9.148;2023-01-25T07:36:23;15.93;;;9.73;;
62580;SDS011;48640;48.770;9.148;2023-01-25T07:38:51;16.40;;;10.20;;
62580;SDS011;48640;48.770;9.148;2023-01-25T07:41:19;15.00;;;9.60;;
62580;SDS011;48640;48.770;9.148;2023-01-25T07:43:46;18.70;;;11.68;;
62580;SDS011;48640;48.770;9.148;2023-01-25T07:46:13;18.92;;;11.02;;
62580;SDS011;48640;48.770;9.148;2023-01-25T07:48:44;20.13;;;11.20;;
62580;SDS011;48640;48.770;9.148;2023-01-25T07:51:12;20.50;;;11.63;;
62580;SDS011;48640;48.770;9.148;2023-01-25T07:53:46;17.45;;;9.35;;
62580;SDS011;48640;48.770;9.148;2023-01-25T07:56:15;18.05;;;10.18;;
62580;SDS011;48640;48.770;9.148;2023-01-25T07:58:42;17.08;;;11.23;;
62580;SDS011;48640;48.770;9.148;2023-01-25T08:01:10;19.00;;;10.45;;
62580;SDS011;48640;48.770;9.148;2023-01-25T08:03:38;19.13;;;11.20;;
62580;SDS011;48640;48.770;9.148;2023-01-25T08:06:07;20.52;;;11.13;;
62580;SDS011;48640;48.770;9.148;2023-01-25T08:08:35;21.10;;;12.23;;
62580;SDS011;48640;48.770;9.148;2023-01-25T08:11:06;22.13;;;10.52;;
62580;SDS011;48640;48.770;9.148;2023-01-25T08:13:34;20.10;;;9.65;;
62580;SDS011;48640;48.770;9.148;2023-01-25T08:16:01;16.85;;;9.93;;
62580;SDS011;48640;48.770;9.148;2023-01-25T08:18:28;16.73;;;9.55;;
62580;SDS011;48640;48.770;9.148;2023-01-25T08:20:56;16.92;;;11.02;;
62580;SDS011;48640;48.770;9.148;2023-01-25T08:23:24;18.67;;;10.98;;
62580;SDS011;48640;48.770;9.148;2023-01-25T08:25:51;19.40;;;11.65;;
62580;SDS011;48640;48.770;9.148;2023-01-25T08:28:18;20.38;;;11.50;;
62580;SDS011;48640;48.770;9.148;2023-01-25T08:30:44;20.80;;;11.65;;
62580;SDS011;48640;48.770;9.148;2023-01-25T08:33:11;25.52;;;12.57;;
62580;SDS011;48640;48.770;9.148;2023-01-25T08:35:38;17.35;;;10.48;;
62580;SDS011;48640;48.770;9.148;2023-01-25T08:38:05;17.80;;;11.80;;
62580;SDS011;48640;48.770;9.148;2023-01-25T08:40:33;20.70;;;11.35;;
62580;SDS011;48640;48.770;9.148;2023-01-25T08:43:00;17.65;;;10.70;;
62580;SDS011;48640;48.770;9.148;2023-01-25T08:45:26;14.82;;;9.48;;
62580;SDS011;48640;48.770;9.148;2023-01-25T08:47:58;15.32;;;9.80;;
62580;SDS011;48640;48.770;9.148;2023-01-25T08:50:25;14.85;;;8.73;;
62580;SDS011;48640;48.770;9.148;2023-01-25T08:52:52;18.67;;;11.55;;
62580;SDS011;48640;48.770;9.148;2023-01-25T08:55:18;20.27;;;10.77;;
62580;SDS011;48640;48.770;9.148;2023-01-25T08:57:46;21.02;;;10.98;;
62580;SDS011;48640;48.770;9.148;2023-01-25T09:00:14;19.17;;;10.07;;
62580;SDS011;48640;48.770;9.148;2023-01-25T09:02:41;17.00;;;9.88;;
62580;SDS011;48640;48.770;9.148;2023-01-25T09:05:08;16.13;;;10.23;;
62580;SDS011;48640;48.770;9.148;2023-01-25T09:07:35;17.42;;;10.95;;
62580;SDS011;48640;48.770;9.148;2023-01-25T09:10:04;19.48;;;10.20;;
62580;SDS011;48640;48.770;9.148;2023-01-25T09:12:32;16.00;;;10.30;;
62580;SDS011;48640;48.770;9.148;2023-01-25T09:15:01;19.33;;;11.38;;
62580;SDS011;48640;48.770;9.148;2023-01-25T09:17:28;18.45;;;9.95;;
62580;SDS011;48640;48.770;9.148;2023-01-25T09:19:54;18.40;;;10.65;;
62580;SDS011;48640;48.770;9.148;2023-01-25T09:22:21;25.60;;;10.60;;
62580;SDS011;48640;48.770;9.148;2023-01-25T09:24:48;18.98;;;10.15;;
62580;SDS011;48640;48.770;9.148;2023-01-25T09:27:17;18.83;;;10.97;;
62580;SDS011;48640;48.770;9.148;2023-01-25T09:29:45;17.83;;;9.85;;
62580;SDS011;48640;48.770;9.148;2023-01-25T09:32:13;18.08;;;10.80;;
62580;SDS011;48640;48.770;9.148;2023-01-25T09:34:40;17.38;;;10.70;;
62580;SDS011;48640;48.770;9.148;2023-01-25T09:37:07;16.13;;;10.38;;
62580;SDS011;48640;48.770;9.148;2023-01-25T09:39:33;15.73;;;8.75;;
62580;SDS011;48640;48.770;9.148;2023-01-25T09:42:06;18.23;;;10.18;;
62580;SDS011;48640;48.770;9.148;2023-01-25T09:44:58;14.68;;;9.50;;
62580;SDS011;48640;48.770;9.148;2023-01-25T09:47:41;14.70;;;9.63;;
62580;SDS011;48640;48.770;9.148;2023-01-25T09:53:06;18.55;;;10.65;;
62580;SDS011;48640;48.770;9.148;2023-01-25T09:55:53;16.50;;;9.98;;
62580;SDS011;48640;48.770;9.148;2023-01-25T09:58:23;17.30;;;9.85;;
62580;SDS011;48640;48.770;9.148;2023-01-25T10:00:58;16.52;;;9.90;;
62580;SDS011;48640;48.770;9.148;2023-01-25T10:03:40;14.77;;;8.70;;
62580;SDS011;48640;48.770;9.148;2023-01-25T10:06:13;15.68;;;9.23;;
62580;SDS011;48640;48.770;9.148;2023-01-25T10:08:45;16.15;;;9.65;;
62580;SDS011;48640;48.770;9.148;2023-01-25T10:11:20;16.75;;;9.20;;
62580;SDS011;48640;48.770;9.148;2023-01-25T10:13:49;16.95;;;9.77;;
62580;SDS011;48640;48.770;9.148;2023-01-25T10:16:19;16.17;;;9.55;;
62580;SDS011;48640;48.770;9.148;2023-01-25T10:18:55;16.33;;;10.38;;
62580;SDS011;48640;48.770;9.148;2023-01-25T10:21:30;14.23;;;9.30;;
62580;SDS011;48640;48.770;9.148;2023-01-25T10:24:12;14.07;;;9.80;;
62580;SDS011;48640;48.770;9.148;2023-01-25T10:26:57;14.68;;;9.38;;
62580;SDS011;48640;48.770;9.148;2023-01-25T10:29:30;18.45;;;10.35;;
62580;SDS011;48640;48.770;9.148;2023-01-25T10:31:59;16.77;;;10.93;;
62580;SDS011;48640;48.770;9.148;2023-01-25T10:34:36;17.45;;;10.20;;
62580;SDS011;48640;48.770;9.148;2023-01-25T10:37:09;17.90;;;9.93;;
62580;SDS011;48640;48.770;9.148;2023-01-25T10:39:40;21.63;;;10.73;;
62580;SDS011;48640;48.770;9.148;2023-01-25T10:42:12;15.73;;;9.73;;
62580;SDS011;48640;48.770;9.148;2023-01-25T10:44:41;17.05;;;9.90;;
62580;SDS011;48640;48.770;9.148;2023-01-25T10:47:10;18.98;;;10.98;;
62580;SDS011;48640;48.770;9.148;2023-01-25T10:49:45;19.05;;;11.30;;
62580;SDS011;48640;48.770;9.148;2023-01-25T10:52:14;17.15;;;10.93;;
62580;SDS011;48640;48.770;9.148;2023-01-25T10:54:42;18.52;;;10.48;;
62580;SDS011;48640;48.770;9.148;2023-01-25T10:57:11;19.35;;;11.15;;
62580;SDS011;48640;48.770;9.148;2023-01-25T10:59:41;17.38;;;10.88;;
62580;SDS011;48640;48.770;9.148;2023-01-25T11:02:20;18.83;;;11.60;;
62580;SDS011;48640;48.770;9.148;2023-01-25T11:05:25;18.35;;;10.02;;
62580;SDS011;48640;48.770;9.148;2023-01-25T11:08:14;18.10;;;10.55;;
62580;SDS011;48640;48.770;9.148;2023-01-25T11:10:47;17.90;;;10.20;;
62580;SDS011;48640;48.770;9.148;2023-01-25T11:13:17;18.63;;;10.63;;
62580;SDS011;48640;48.770;9.148;2023-01-25T11:15:46;18.80;;;11.48;;
62580;SDS011;48640;48.770;9.148;2023-01-25T11:18:17;16.73;;;10.73;;
62580;SDS011;48640;48.770;9.148;2023-01-25T11:20:48;17.70;;;10.73;;
62580;SDS011;48640;48.770;9.148;2023-01-25T11:23:29;17.92;;;10.93;;
62580;SDS011;48640;48.770;9.148;2023-01-25T11:26:09;18.35;;;10.95;;
62580;SDS011;48640;48.770;9.148;2023-01-25T11:28:37;18.20;;;11.75;;
62580;SDS011;48640;48.770;9.148;2023-01-25T11:31:04;19.73;;;11.55;;
62580;SDS011;48640;48.770;9.148;2023-01-25T11:33:36;22.67;;;11.45;;
62580;SDS011;48640;48.770;9.148;2023-01-25T11:36:20;19.83;;;11.40;;
62580;SDS011;48640;48.770;9.148;2023-01-25T11:41:41;19.75;;;11.20;;
62580;SDS011;48640;48.770;9.148;2023-01-25T11:44:24;17.42;;;11.43;;
62580;SDS011;48640;48.770;9.148;2023-01-25T11:47:09;18.50;;;10.98;;
62580;SDS011;48640;48.770;9.148;2023-01-25T11:49:49;16.83;;;11.02;;
62580;SDS011;48640;48.770;9.148;2023-01-25T11:52:26;17.35;;;10.75;;
62580;SDS011;48640;48.770;9.148;2023-01-25T11:55:02;18.27;;;11.30;;
62580;SDS011;48640;48.770;9.148;2023-01-25T11:57:50;19.30;;;13.02;;
62580;SDS011;48640;48.770;9.148;2023-01-25T12:00:29;22.05;;;13.23;;
62580;SDS011;48640;48.770;9.148;2023-01-25T12:06:12;24.55;;;14.35;;
62580;SDS011;48640;48.770;9.148;2023-01-25T12:08:53;21.50;;;13.10;;
62580;SDS011;48640;48.770;9.148;2023-01-25T12:11:38;23.00;;;14.05;;
62580;SDS011;48640;48.770;9.148;2023-01-25T12:14:11;23.13;;;12.93;;
62580;SDS011;48640;48.770;9.148;2023-01-25T12:16:53;24.27;;;12.68;;
62580;SDS011;48640;48.770;9.148;2023-01-25T12:19:36;19.52;;;11.48;;
62580;SDS011;48640;48.770;9.148;2023-01-25T12:22:19;21.30;;;12.30;;
62580;SDS011;48640;48.770;9.148;2023-01-25T12:25:00;22.25;;;12.43;;
62580;SDS011;48640;48.770;9.148;2023-01-25T12:27:38;21.60;;;13.15;;
62580;SDS011;48640;48.770;9.148;2023-01-25T12:30:18;19.88;;;12.27;;
62580;SDS011;48640;48.770;9.148;2023-01-25T12:32:49;22.02;;;12.57;;
62580;SDS011;48640;48.770;9.148;2023-01-25T12:35:24;22.65;;;13.68;;
62580;SDS011;48640;48.770;9.148;2023-01-25T12:37:59;21.75;;;13.02;;
62580;SDS011;48640;48.770;9.148;2023-01-25T12:40:33;22.45;;;13.25;;
62580;SDS011;48640;48.770;9.148;2023-01-25T12:43:11;21.50;;;12.75;;
62580;SDS011;48640;48.770;9.148;2023-01-25T12:45:43;25.05;;;13.95;;
62580;SDS011;48640;48.770;9.148;2023-01-25T12:48:13;23.27;;;13.82;;
62580;SDS011;48640;48.770;9.148;2023-01-25T12:50:45;25.55;;;14.55;;
62580;SDS011;48640;48.770;9.148;2023-01-25T12:53:16;23.83;;;12.85;;
62580;SDS011;48640;48.770;9.148;2023-01-25T12:55:47;21.98;;;12.73;;
62580;SDS011;48640;48.770;9.148;2023-01-25T12:58:17;27.05;;;15.02;;
62580;SDS011;48640;48.770;9.148;2023-01-25T13:00:51;23.20;;;13.80;;
62580;SDS011;48640;48.770;9.148;2023-01-25T13:03:27;23.80;;;13.77;;
62580;SDS011;48640;48.770;9.148;2023-01-25T13:06:00;24.98;;;15.35;;
62580;SDS011;48640;48.770;9.148;2023-01-25T13:08:36;23.17;;;13.93;;
62580;SDS011;48640;48.770;9.148;2023-01-25T13:11:12;23.90;;;13.40;;
62580;SDS011;48640;48.770;9.148;2023-01-25T13:13:43;24.70;;;14.75;;
62580;SDS011;48640;48.770;9.148;2023-01-25T13:16:23;25.55;;;15.82;;
62580;SDS011;48640;48.770;9.148;2023-01-25T13:19:00;23.70;;;14.90;;
62580;SDS011;48640;48.770;9.148;2023-01-25T13:21:40;22.92;;;13.50;;
62580;SDS011;48640;48.770;9.148;2023-01-25T13:24:11;25.27;;;14.27;;
62580;SDS011;48640;48.770;9.148;2023-01-25T13:26:56;24.58;;;15.70;;
62580;SDS011;48640;48.770;9.148;2023-01-25T13:35:30;26.08;;;14.50;;
62580;SDS011;48640;48.770;9.148;2023-01-25T13:38:03;25.63;;;15.60;;
62580;SDS011;48640;48.770;9.148;2023-01-25T13:41:00;25.23;;;14.43;;
62580;SDS011;48640;48.770;9.148;2023-01-25T13:43:30;25.83;;;15.82;;
62580;SDS011;48640;48.770;9.148;2023-01-25T13:45:57;24.10;;;13.88;;
62580;SDS011;48640;48.770;9.148;2023-01-25T13:48:24;25.67;;;15.35;;
62580;SDS011;48640;48.770;9.148;2023-01-25T13:53:23;24.45;;;14.15;;
62580;SDS011;48640;48.770;9.148;2023-01-25T13:58:23;31.42;;;15.95;;
62580;SDS011;48640;48.770;9.148;2023-01-25T14:00:53;25.25;;;14.38;;
62580;SDS011;48640;48.770;9.148;2023-01-25T14:05:51;30.25;;;15.73;;
62580;SDS011;48640;48.770;9.148;2023-01-25T14:08:20;26.00;;;16.00;;
62580;SDS011;48640;48.770;9.148;2023-01-25T14:10:48;30.75;;;17.67;;
62580;SDS011;48640;48.770;9.148;2023-01-25T14:13:16;34.97;;;19.10;;
62580;SDS011;48640;48.770;9.148;2023-01-25T14:15:55;26.90;;;16.90;;
62580;SDS011;48640;48.770;9.148;2023-01-25T14:18:27;30.52;;;16.77;;
62580;SDS011;48640;48.770;9.148;2023-01-25T14:21:09;29.15;;;16.35;;
62580;SDS011;48640;48.770;9.148;2023-01-25T14:23:38;29.33;;;16.20;;
62580;SDS011;48640;48.770;9.148;2023-01-25T14:26:15;27.05;;;15.85;;
62580;SDS011;48640;48.770;9.148;2023-01-25T14:28:47;27.45;;;17.00;;
62580;SDS011;48640;48.770;9.148;2023-01-25T14:31:22;31.25;;;15.68;;
62580;SDS011;48640;48.770;9.148;2023-01-25T14:33:50;30.83;;;15.77;;
62580;SDS011;48640;48.770;9.148;2023-01-25T14:36:22;28.45;;;16.20;;
62580;SDS011;48640;48.770;9.148;2023-01-25T14:38:51;27.58;;;16.00;;
62580;SDS011;48640;48.770;9.148;2023-01-25T14:41:19;25.92;;;16.08;;
62580;SDS011;48640;48.770;9.148;2023-01-25T14:43:50;27.60;;;15.88;;
62580;SDS011;48640;48.770;9.148;2023-01-25T14:46:20;26.60;;;15.27;;
62580;SDS011;48640;48.770;9.148;2023-01-25T14:48:49;26.13;;;15.68;;
62580;SDS011;48640;48.770;9.148;2023-01-25T14:51:21;27.98;;;15.13;;
62580;SDS011;48640;48.770;9.148;2023-01-25T14:53:54;25.88;;;14.48;;
62580;SDS011;48640;48.770;9.148;2023-01-25T14:56:29;27.48;;;16.48;;
62580;SDS011;48640;48.770;9.148;2023-01-25T14:59:02;25.83;;;14.82;;
62580;SDS011;48640;48.770;9.148;2023-01-25T15:01:33;27.67;;;16.00;;
62580;SDS011;48640;48.770;9.148;2023-01-25T15:04:03;26.48;;;16.20;;
62580;SDS011;48640;48.770;9.148;2023-01-25T15:06:42;27.48;;;15.32;;